Time;durP1;ratioP1;P1;durP2;ratioP2;P2;SDS_P1;SDS_P2;PMS_P1;PMS_P2;Temp;Humidity;BMP_temperature;BMP_pressure;BME280_temperature;BME280_humidity;BME280_pressure;Samples;Min_cycle;Max_cycle;Signal;HPM_P1;HPM_P2
2022/11/26 00:02:17;;;;;;;26.08;8.13;;;5.30;99.90;;;;;;6215676;23;20023;-83
2022/11/26 00:04:43;;;;;;;24.35;8.70;;;5.30;99.90;;;;;;6243612;23;20018;-83
2022/11/26 00:07:11;;;;;;;20.45;6.97;;;5.30;99.90;;;;;;6243465;23;20034;-83
2022/11/26 00:09:37;;;;;;;26.65;9.10;;;5.20;99.90;;;;;;6216614;23;20016;-83
2022/11/26 00:12:18;;;;;;;25.67;8.65;;;5.20;99.90;;;;;;6216455;23;20345;-83
2022/11/26 00:14:44;;;;;;;32.60;8.05;;;5.20;99.90;;;;;;6215254;23;20019;-83
2022/11/26 00:17:14;;;;;;;22.50;10.20;;;5.20;99.90;;;;;;6241602;23;20427;-83
2022/11/26 00:19:40;;;;;;;27.33;8.88;;;5.20;99.90;;;;;;6243145;23;20012;-83
2022/11/26 00:22:14;;;;;;;23.40;8.13;;;5.20;99.90;;;;;;6243544;23;20019;-83
2022/11/26 00:24:40;;;;;;;19.90;7.45;;;5.20;99.90;;;;;;6214987;23;20052;-83
2022/11/26 00:27:10;;;;;;;24.17;7.97;;;5.20;99.90;;;;;;6216174;23;20012;-83
2022/11/26 00:29:35;;;;;;;22.85;7.35;;;5.20;99.90;;;;;;6190420;23;20059;-83
2022/11/26 00:32:01;;;;;;;22.90;7.50;;;5.20;99.90;;;;;;6215620;23;20016;-83
2022/11/26 00:34:27;;;;;;;21.33;7.18;;;5.10;99.90;;;;;;6218422;23;20015;-83
2022/11/26 00:36:52;;;;;;;23.75;7.72;;;5.20;99.90;;;;;;6219548;23;20012;-83
2022/11/26 00:39:22;;;;;;;22.13;7.30;;;5.20;99.90;;;;;;6245227;23;20022;-83
2022/11/26 00:41:50;;;;;;;27.33;7.68;;;5.20;99.90;;;;;;6219055;23;20026;-83
2022/11/26 00:44:24;;;;;;;21.27;7.93;;;5.20;99.90;;;;;;6218665;23;20020;-83
2022/11/26 00:46:50;;;;;;;20.13;7.70;;;5.10;99.90;;;;;;6218599;23;20019;-83
2022/11/26 00:49:16;;;;;;;30.67;9.55;;;5.10;99.90;;;;;;6245819;23;20054;-83
2022/11/26 00:51:44;;;;;;;32.45;9.45;;;5.10;99.90;;;;;;6246893;23;20023;-83
2022/11/26 00:54:13;;;;;;;27.00;9.20;;;5.10;99.90;;;;;;6220069;23;20328;-84
2022/11/26 00:56:39;;;;;;;28.85;8.30;;;5.10;99.90;;;;;;6219894;23;20064;-83
2022/11/26 00:59:05;;;;;;;22.08;8.45;;;5.20;99.90;;;;;;6245892;23;20074;-82
2022/11/26 01:01:31;;;;;;;27.05;9.07;;;5.20;99.90;;;;;;6219010;23;20441;-84
2022/11/26 01:03:58;;;;;;;27.55;8.82;;;5.20;99.90;;;;;;6218520;23;20456;-81
2022/11/26 01:06:35;;;;;;;22.40;9.27;;;5.10;99.90;;;;;;6193296;23;20016;-83
2022/11/26 01:09:03;;;;;;;26.08;8.93;;;5.10;99.90;;;;;;6246728;23;20016;-83
2022/11/26 01:11:29;;;;;;;26.73;8.55;;;5.10;99.90;;;;;;6218624;23;20081;-83
2022/11/26 01:13:55;;;;;;;24.05;8.00;;;5.10;99.90;;;;;;6245577;23;20011;-83
2022/11/26 01:16:22;;;;;;;21.40;7.88;;;5.10;99.90;;;;;;6245223;23;20490;-82
2022/11/26 01:18:49;;;;;;;28.70;8.18;;;5.10;99.90;;;;;;6219116;23;20024;-83
2022/11/26 01:21:16;;;;;;;27.75;8.50;;;5.10;99.90;;;;;;6246023;23;20048;-83
2022/11/26 01:23:42;;;;;;;26.02;8.15;;;5.00;99.90;;;;;;6219278;23;20333;-83
2022/11/26 01:26:18;;;;;;;24.42;8.00;;;5.00;99.90;;;;;;6245677;23;20446;-83
2022/11/26 01:28:44;;;;;;;20.50;7.35;;;5.00;99.90;;;;;;6218207;23;20072;-83
2022/11/26 01:31:20;;;;;;;20.15;8.27;;;5.00;99.90;;;;;;6218535;23;20066;-83
2022/11/26 01:33:46;;;;;;;23.73;9.18;;;5.00;99.90;;;;;;6245614;23;20016;-82
2022/11/26 01:36:24;;;;;;;22.25;8.18;;;5.00;99.90;;;;;;6193991;23;20015;-83
2022/11/26 01:38:55;;;;;;;31.83;8.93;;;5.00;99.90;;;;;;6218963;23;20020;-83
2022/11/26 01:41:58;;;;;;;19.67;6.80;;;5.00;99.90;;;;;;6217868;23;20023;-82
2022/11/26 01:44:28;;;;;;;27.33;8.00;;;5.00;99.90;;;;;;6243725;23;20453;-83
2022/11/26 01:46:54;;;;;;;24.98;7.70;;;4.90;99.90;;;;;;6215998;23;20013;-83
2022/11/26 01:49:22;;;;;;;18.65;7.35;;;4.90;99.90;;;;;;6243298;23;20013;-83
2022/11/26 01:52:19;;;;;;;18.98;7.53;;;4.90;99.90;;;;;;6217876;23;20065;-83
2022/11/26 01:54:45;;;;;;;21.52;8.02;;;4.80;99.90;;;;;;6211813;23;20012;-83
2022/11/26 01:57:21;;;;;;;22.35;8.88;;;4.80;99.90;;;;;;6211193;23;20102;-82
2022/11/26 01:59:58;;;;;;;23.38;8.50;;;4.70;99.90;;;;;;6213679;23;20027;-83
2022/11/26 02:02:27;;;;;;;25.48;8.43;;;4.70;99.90;;;;;;6211399;23;20067;-83
2022/11/26 02:05:06;;;;;;;18.35;8.48;;;4.70;99.90;;;;;;6213937;23;20019;-82
2022/11/26 02:07:32;;;;;;;22.88;7.80;;;4.70;99.90;;;;;;6214062;23;20017;-82
2022/11/26 02:10:00;;;;;;;15.95;7.70;;;4.70;99.90;;;;;;6213568;23;20023;-82
2022/11/26 02:12:26;;;;;;;23.17;8.50;;;4.60;99.90;;;;;;6211475;23;20080;-83
2022/11/26 02:14:52;;;;;;;25.98;8.77;;;4.60;99.90;;;;;;6214188;23;20012;-83
2022/11/26 02:17:20;;;;;;;19.67;8.57;;;4.60;99.90;;;;;;6212052;23;20027;-83
2022/11/26 02:19:57;;;;;;;26.55;8.73;;;4.60;99.90;;;;;;6213243;23;20008;-82
2022/11/26 02:22:48;;;;;;;34.75;9.40;;;4.60;99.90;;;;;;6212232;23;20068;-83
2022/11/26 02:25:22;;;;;;;21.85;8.80;;;4.60;99.90;;;;;;6213443;23;20459;-83
2022/11/26 02:28:18;;;;;;;16.48;8.70;;;4.60;99.90;;;;;;6212784;23;20017;-83
2022/11/26 02:30:55;;;;;;;21.65;8.63;;;4.60;99.90;;;;;;6211976;23;20098;-83
2022/11/26 02:33:28;;;;;;;20.85;8.77;;;4.60;99.90;;;;;;6213675;23;20059;-83
2022/11/26 02:36:13;;;;;;;21.85;8.93;;;4.50;99.90;;;;;;6213100;23;20008;-83
2022/11/26 02:38:40;;;;;;;19.15;9.23;;;4.50;99.90;;;;;;6211201;23;20020;-83
2022/11/26 02:41:06;;;;;;;23.15;10.00;;;4.50;99.90;;;;;;6210872;23;20024;-82
2022/11/26 02:43:33;;;;;;;18.95;8.55;;;4.50;99.90;;;;;;6210259;23;20048;-83
2022/11/26 02:46:03;;;;;;;22.58;9.43;;;4.40;99.90;;;;;;6211541;23;20069;-82
2022/11/26 02:48:37;;;;;;;27.08;9.88;;;4.40;99.90;;;;;;6211011;23;20012;-83
2022/11/26 02:51:13;;;;;;;23.35;10.63;;;4.40;99.90;;;;;;6212502;23;20062;-83
2022/11/26 02:53:40;;;;;;;23.42;9.60;;;4.40;99.90;;;;;;6212988;23;20026;-82
2022/11/26 02:56:14;;;;;;;29.85;11.40;;;4.40;99.90;;;;;;6210828;23;20024;-83
2022/11/26 02:58:40;;;;;;;22.75;9.75;;;4.40;99.90;;;;;;6211074;23;20012;-83
2022/11/26 03:01:11;;;;;;;17.52;9.23;;;4.40;99.90;;;;;;6212373;23;20012;-83
2022/11/26 03:03:45;;;;;;;21.17;10.98;;;4.40;99.90;;;;;;6211334;23;20012;-82
2022/11/26 03:06:13;;;;;;;23.63;10.67;;;4.40;99.90;;;;;;6186547;23;20013;-83
2022/11/26 03:08:39;;;;;;;22.50;10.88;;;4.90;99.90;;;;;;6186407;23;20008;-83
2022/11/26 03:11:05;;;;;;;28.75;11.85;;;4.30;99.90;;;;;;6211279;23;20060;-83
2022/11/26 03:13:31;;;;;;;29.67;11.85;;;4.30;99.90;;;;;;6212147;23;20012;-83
2022/11/26 03:15:57;;;;;;;26.50;13.48;;;4.30;99.90;;;;;;6212435;23;20009;-83
2022/11/26 03:18:23;;;;;;;18.83;11.38;;;4.30;99.90;;;;;;6210228;23;20027;-82
2022/11/26 03:20:48;;;;;;;20.70;11.10;;;4.30;99.90;;;;;;6210541;23;20021;-82
2022/11/26 03:23:14;;;;;;;22.55;11.10;;;4.30;99.90;;;;;;6212193;23;20017;-82
2022/11/26 03:25:40;;;;;;;28.23;11.77;;;4.40;99.90;;;;;;6210342;23;20441;-83
2022/11/26 03:28:05;;;;;;;24.85;11.32;;;4.30;99.90;;;;;;6211017;23;20441;-83
2022/11/26 03:30:31;;;;;;;26.77;12.07;;;4.30;99.90;;;;;;6212413;23;20008;-82
2022/11/26 03:32:57;;;;;;;26.50;12.95;;;4.30;99.90;;;;;;6212472;23;20020;-82
2022/11/26 03:35:23;;;;;;;24.48;11.48;;;4.40;99.90;;;;;;6212695;23;20043;-82
2022/11/26 03:37:49;;;;;;;25.00;12.38;;;4.30;99.90;;;;;;6185420;23;20021;-83
2022/11/26 03:40:17;;;;;;;33.42;12.70;;;4.30;99.90;;;;;;6210570;23;20085;-82
2022/11/26 03:42:44;;;;;;;29.30;12.68;;;4.40;99.90;;;;;;6211032;23;20058;-82
2022/11/26 03:45:10;;;;;;;28.80;12.55;;;4.40;99.90;;;;;;6211120;23;20059;-82
2022/11/26 03:47:37;;;;;;;27.52;13.18;;;4.40;99.90;;;;;;6210535;23;20055;-82
2022/11/26 03:50:04;;;;;;;28.17;12.63;;;4.40;99.90;;;;;;6185151;23;20016;-83
2022/11/26 03:52:30;;;;;;;28.23;13.57;;;4.40;99.90;;;;;;6210405;23;20457;-83
2022/11/26 03:54:56;;;;;;;33.35;13.77;;;4.40;99.90;;;;;;6235332;23;20016;-83
2022/11/26 03:57:21;;;;;;;24.30;12.70;;;4.40;99.90;;;;;;6210831;23;20346;-82
2022/11/26 03:59:47;;;;;;;29.30;13.10;;;4.40;99.90;;;;;;6210694;23;20440;-82
2022/11/26 04:02:13;;;;;;;30.92;11.95;;;4.40;99.90;;;;;;6212484;23;20012;-82
2022/11/26 04:04:38;;;;;;;27.98;12.10;;;4.40;99.90;;;;;;6211644;23;20017;-82
2022/11/26 04:07:04;;;;;;;26.23;12.23;;;4.40;99.90;;;;;;6211642;23;20019;-83
2022/11/26 04:09:30;;;;;;;27.63;13.15;;;4.40;99.90;;;;;;6209729;23;20453;-82
2022/11/26 04:11:56;;;;;;;32.78;13.32;;;4.60;99.90;;;;;;6210037;23;20047;-83
2022/11/26 04:14:21;;;;;;;27.25;14.70;;;4.40;99.90;;;;;;6209108;23;20062;-82
2022/11/26 04:16:47;;;;;;;37.50;13.90;;;4.40;99.90;;;;;;6211955;23;20012;-83
2022/11/26 04:19:13;;;;;;;26.23;13.05;;;4.40;99.90;;;;;;6185388;23;20016;-82
2022/11/26 04:21:38;;;;;;;29.77;11.60;;;4.40;99.90;;;;;;6212361;23;20024;-82
2022/11/26 04:24:04;;;;;;;30.92;13.50;;;4.40;99.90;;;;;;6210107;23;20066;-82
2022/11/26 04:26:30;;;;;;;28.77;12.73;;;4.40;99.90;;;;;;6210654;23;20020;-81
2022/11/26 04:28:55;;;;;;;25.48;11.82;;;4.30;99.90;;;;;;6185400;23;20529;-83
2022/11/26 04:31:21;;;;;;;30.38;12.77;;;4.30;99.90;;;;;;6211808;23;20059;-82
2022/11/26 04:33:46;;;;;;;33.95;13.38;;;4.30;99.90;;;;;;6209771;23;20013;-82
2022/11/26 04:36:12;;;;;;;28.65;12.90;;;4.30;99.90;;;;;;6211993;23;20008;-82
2022/11/26 04:38:38;;;;;;;31.08;13.60;;;4.30;99.90;;;;;;6211166;23;20016;-82
2022/11/26 04:41:03;;;;;;;27.05;12.75;;;4.30;99.90;;;;;;6210060;23;20046;-82
2022/11/26 04:43:29;;;;;;;29.95;12.63;;;4.30;99.90;;;;;;6211160;23;20012;-82
2022/11/26 04:45:55;;;;;;;23.90;10.98;;;4.30;99.90;;;;;;6185568;23;20105;-82
2022/11/26 04:48:21;;;;;;;26.52;12.13;;;4.30;99.90;;;;;;6209691;23;20563;-82
2022/11/26 04:50:48;;;;;;;25.27;13.05;;;4.20;99.90;;;;;;6209590;23;20017;-82
2022/11/26 04:53:13;;;;;;;26.02;11.95;;;4.20;99.90;;;;;;6210809;23;20042;-83
2022/11/26 04:55:39;;;;;;;25.70;11.65;;;4.20;99.90;;;;;;6212401;23;20543;-82
2022/11/26 04:58:05;;;;;;;23.73;10.93;;;4.20;99.90;;;;;;6215099;23;20039;-82
2022/11/26 05:00:30;;;;;;;32.50;12.88;;;4.20;99.90;;;;;;6241779;23;20016;-82
2022/11/26 05:02:56;;;;;;;24.77;11.27;;;4.20;99.90;;;;;;6241925;23;20023;-83
2022/11/26 05:05:21;;;;;;;33.28;12.25;;;4.20;99.90;;;;;;6215464;23;20020;-82
2022/11/26 05:07:47;;;;;;;23.02;12.32;;;4.20;99.90;;;;;;6214966;23;20087;-82
2022/11/26 05:10:13;;;;;;;30.05;12.60;;;4.20;99.90;;;;;;6242576;23;20429;-82
2022/11/26 05:12:38;;;;;;;26.88;11.27;;;4.20;99.90;;;;;;6215578;23;20353;-82
2022/11/26 05:15:05;;;;;;;26.17;11.93;;;4.10;99.90;;;;;;6215530;23;20020;-82
2022/11/26 05:17:31;;;;;;;34.08;13.00;;;4.20;99.90;;;;;;6214291;23;20019;-82
2022/11/26 05:19:57;;;;;;;29.25;13.70;;;4.20;99.90;;;;;;6242319;23;20543;-82
2022/11/26 05:22:22;;;;;;;25.35;12.13;;;4.20;99.90;;;;;;6215975;23;20012;-82
2022/11/26 05:24:48;;;;;;;33.15;11.75;;;4.20;99.90;;;;;;6216007;23;20012;-82
2022/11/26 05:27:14;;;;;;;26.38;12.32;;;4.20;99.90;;;;;;6215922;23;20016;-82
2022/11/26 05:29:39;;;;;;;21.48;11.68;;;4.20;99.90;;;;;;6242492;23;20097;-82
2022/11/26 05:32:05;;;;;;;25.23;11.80;;;4.20;99.90;;;;;;6244017;23;20016;-82
2022/11/26 05:34:31;;;;;;;32.05;13.00;;;4.20;99.90;;;;;;6215855;23;20016;-82
2022/11/26 05:36:56;;;;;;;29.02;12.88;;;4.10;99.90;;;;;;6215594;23;20626;-83
2022/11/26 05:39:22;;;;;;;28.42;12.25;;;4.10;99.90;;;;;;6215759;23;20035;-82
2022/11/26 05:41:48;;;;;;;32.28;13.07;;;4.20;99.90;;;;;;6243170;23;20023;-82
2022/11/26 05:44:13;;;;;;;32.08;12.30;;;4.20;99.90;;;;;;6215016;23;20119;-82
2022/11/26 05:46:40;;;;;;;28.02;12.20;;;4.20;99.90;;;;;;6243917;23;20348;-83
2022/11/26 05:49:06;;;;;;;24.48;12.23;;;4.20;99.90;;;;;;6215291;23;20020;-82
2022/11/26 05:51:32;;;;;;;25.40;12.60;;;4.10;99.90;;;;;;6242825;23;20058;-83
2022/11/26 05:53:58;;;;;;;25.75;12.73;;;4.10;99.90;;;;;;6243206;23;20043;-82
2022/11/26 05:56:23;;;;;;;27.60;12.73;;;4.10;99.90;;;;;;6210486;23;20480;-82
2022/11/26 05:58:49;;;;;;;36.47;14.93;;;4.10;99.90;;;;;;6210567;23;20086;-82
2022/11/26 06:01:15;;;;;;;29.02;12.80;;;4.10;99.90;;;;;;6212711;23;20055;-82
2022/11/26 06:03:41;;;;;;;29.35;13.02;;;4.10;99.90;;;;;;6209885;23;20020;-82
2022/11/26 06:06:07;;;;;;;26.10;13.63;;;4.10;99.90;;;;;;6212176;23;20463;-82
2022/11/26 06:08:33;;;;;;;23.80;12.75;;;4.10;99.90;;;;;;6211813;23;20084;-82
2022/11/26 06:10:59;;;;;;;22.70;11.00;;;4.10;99.90;;;;;;6212611;23;20016;-83
2022/11/26 06:13:25;;;;;;;27.02;13.15;;;4.10;99.90;;;;;;6210448;23;20024;-82
2022/11/26 06:15:50;;;;;;;26.98;12.85;;;4.00;99.90;;;;;;6211357;23;20012;-82
2022/11/26 06:18:17;;;;;;;30.38;13.70;;;4.00;99.90;;;;;;6208627;23;20047;-82
2022/11/26 06:20:42;;;;;;;29.73;13.85;;;4.00;99.90;;;;;;6208846;23;20020;-82
2022/11/26 06:23:08;;;;;;;29.45;14.48;;;4.00;99.90;;;;;;6209073;23;20020;-82
2022/11/26 06:25:34;;;;;;;27.48;12.85;;;4.00;99.90;;;;;;6210411;23;20024;-82
2022/11/26 06:27:59;;;;;;;29.48;14.25;;;4.00;99.90;;;;;;6209581;23;20017;-82
2022/11/26 06:30:25;;;;;;;31.65;14.85;;;4.00;99.90;;;;;;6207847;23;20394;-82
2022/11/26 06:32:50;;;;;;;27.65;12.38;;;4.00;99.90;;;;;;6206732;23;20091;-82
2022/11/26 06:35:16;;;;;;;31.33;15.30;;;4.00;99.90;;;;;;6210087;23;20433;-83
2022/11/26 06:37:42;;;;;;;26.33;15.02;;;4.00;99.90;;;;;;6210422;23;20015;-82
2022/11/26 06:40:09;;;;;;;27.05;13.75;;;4.00;99.90;;;;;;6182874;23;20063;-82
2022/11/26 06:42:35;;;;;;;30.58;14.60;;;4.00;99.90;;;;;;6210610;23;20080;-82
2022/11/26 06:45:00;;;;;;;30.77;15.38;;;4.00;99.90;;;;;;6208189;23;20040;-82
2022/11/26 06:47:26;;;;;;;26.90;15.05;;;3.90;99.90;;;;;;6207674;23;20016;-82
2022/11/26 06:49:52;;;;;;;30.67;14.70;;;3.90;99.90;;;;;;6210060;23;20381;-82
2022/11/26 06:52:18;;;;;;;32.72;14.70;;;3.90;99.90;;;;;;6207715;23;20404;-82
2022/11/26 06:54:43;;;;;;;28.60;14.45;;;3.90;99.90;;;;;;6210256;23;20524;-82
2022/11/26 06:57:09;;;;;;;29.13;14.82;;;3.90;99.90;;;;;;6229924;23;20032;-81
2022/11/26 06:59:34;;;;;;;29.30;16.35;;;3.90;99.90;;;;;;6240483;23;20456;-81
2022/11/26 07:02:00;;;;;;;27.85;16.75;;;3.90;99.90;;;;;;6238929;23;20016;-82
2022/11/26 07:04:25;;;;;;;33.25;17.10;;;3.90;99.90;;;;;;6240297;23;20087;-82
2022/11/26 07:06:51;;;;;;;43.78;19.90;;;3.90;99.90;;;;;;6239650;23;20016;-81
2022/11/26 07:09:16;;;;;;;43.60;23.00;;;3.90;99.90;;;;;;6240345;23;20054;-85
2022/11/26 07:11:42;;;;;;;44.30;19.10;;;4.00;99.90;;;;;;6213005;23;20016;-88
2022/11/26 07:14:08;;;;;;;41.72;18.63;;;4.00;99.90;;;;;;6239579;23;20016;-86
2022/11/26 07:16:34;;;;;;;37.88;20.13;;;4.00;99.90;;;;;;6212970;23;20478;-89
2022/11/26 07:19:00;;;;;;;42.63;18.80;;;4.10;99.90;;;;;;6213390;23;20475;-87
2022/11/26 07:21:26;;;;;;;40.15;20.48;;;4.10;99.90;;;;;;6187485;23;20012;-86
2022/11/26 07:23:53;;;;;;;37.60;19.20;;;4.10;99.90;;;;;;6213477;23;20514;-87
2022/11/26 07:26:20;;;;;;;41.20;21.02;;;4.10;99.90;;;;;;6188376;23;20019;-86
2022/11/26 07:28:46;;;;;;;45.70;22.65;;;4.10;99.90;;;;;;6188478;23;20016;-86
2022/11/26 07:31:15;;;;;;;37.72;20.17;;;4.10;99.90;;;;;;6211682;23;20448;-86
2022/11/26 07:33:41;;;;;;;43.95;20.40;;;4.10;99.90;;;;;;6212250;23;20015;-87
2022/11/26 07:36:12;;;;;;;33.65;17.98;;;4.10;99.90;;;;;;6186613;23;20116;-86
2022/11/26 07:38:37;;;;;;;40.22;20.33;;;4.10;99.90;;;;;;6211495;23;20099;-87
2022/11/26 07:41:07;;;;;;;28.83;17.27;;;4.10;99.90;;;;;;6187551;23;20047;-87
2022/11/26 07:43:34;;;;;;;32.80;18.88;;;4.10;99.90;;;;;;6238814;23;20077;-90
2022/11/26 07:46:01;;;;;;;34.00;18.58;;;4.10;99.90;;;;;;6239799;23;20008;-85
2022/11/26 07:48:29;;;;;;;37.58;19.58;;;4.20;99.90;;;;;;6213865;23;20441;-89
2022/11/26 07:50:54;;;;;;;37.33;19.00;;;4.20;99.90;;;;;;6213158;23;20024;-86
2022/11/26 07:53:20;;;;;;;45.05;22.10;;;4.20;99.90;;;;;;6213346;23;20012;-86
2022/11/26 07:55:45;;;;;;;37.95;20.80;;;4.30;99.90;;;;;;6241065;23;20008;-87
2022/11/26 07:58:11;;;;;;;31.73;18.30;;;4.40;99.90;;;;;;6240880;23;20020;-87
2022/11/26 08:00:37;;;;;;;39.75;21.58;;;4.40;99.90;;;;;;6211869;23;20012;-86
2022/11/26 08:03:02;;;;;;;40.40;25.42;;;4.50;99.90;;;;;;6240547;23;20383;-85
2022/11/26 08:05:28;;;;;;;47.85;23.00;;;4.60;99.90;;;;;;6240010;23;20065;-84
2022/11/26 08:07:53;;;;;;;44.13;22.35;;;4.60;99.90;;;;;;6212924;23;20543;-84
2022/11/26 08:10:19;;;;;;;47.15;27.52;;;4.70;99.90;;;;;;6212447;23;20335;-84
2022/11/26 08:12:45;;;;;;;41.78;24.70;;;4.70;99.90;;;;;;6239875;23;20016;-84
2022/11/26 08:15:11;;;;;;;44.00;24.73;;;4.70;99.90;;;;;;6238218;23;20016;-84
2022/11/26 08:17:36;;;;;;;43.58;24.35;;;4.70;99.90;;;;;;6239891;23;20058;-83
2022/11/26 08:20:02;;;;;;;44.80;22.02;;;4.70;99.90;;;;;;6213233;23;20048;-84
2022/11/26 08:22:29;;;;;;;36.17;19.17;;;4.70;99.90;;;;;;6212320;23;20019;-84
2022/11/26 08:24:55;;;;;;;33.85;18.98;;;4.70;99.90;;;;;;6186378;23;20069;-83
2022/11/26 08:27:20;;;;;;;39.33;19.40;;;4.70;99.90;;;;;;6211512;23;20380;-84
2022/11/26 08:29:46;;;;;;;32.25;18.10;;;4.70;99.90;;;;;;6212135;23;20095;-84
2022/11/26 08:32:12;;;;;;;35.20;18.15;;;4.70;99.90;;;;;;6239461;23;20012;-83
2022/11/26 08:34:37;;;;;;;34.35;18.30;;;4.70;99.90;;;;;;6239048;23;20044;-82
2022/11/26 08:37:03;;;;;;;34.38;16.38;;;4.70;99.90;;;;;;6211826;23;20027;-85
2022/11/26 08:39:28;;;;;;;43.88;18.90;;;4.80;99.90;;;;;;6212663;23;20035;-85
2022/11/26 08:41:54;;;;;;;39.92;18.83;;;4.80;99.90;;;;;;6239519;23;20440;-86
2022/11/26 08:44:20;;;;;;;36.92;17.30;;;4.80;99.90;;;;;;6211887;23;20111;-88
2022/11/26 08:46:46;;;;;;;40.03;17.95;;;4.80;99.90;;;;;;6186732;23;20024;-82
2022/11/26 08:49:13;;;;;;;38.60;18.67;;;4.90;99.90;;;;;;6239425;23;20016;-81
2022/11/26 08:51:39;;;;;;;38.15;18.02;;;4.90;99.90;;;;;;6212291;23;20345;-84
2022/11/26 08:54:05;;;;;;;34.92;17.98;;;5.00;99.90;;;;;;6212208;23;20024;-83
2022/11/26 08:56:31;;;;;;;42.60;18.17;;;5.10;99.90;;;;;;6213058;23;20028;-82
2022/11/26 08:58:57;;;;;;;31.95;17.08;;;5.10;99.90;;;;;;6240583;23;20080;-83
2022/11/26 09:01:25;;;;;;;36.08;17.50;;;5.10;99.90;;;;;;6214461;23;20012;-84
2022/11/26 09:03:51;;;;;;;40.40;17.90;;;5.20;99.90;;;;;;6239540;23;20466;-84
2022/11/26 09:06:19;;;;;;;36.17;17.50;;;5.30;99.90;;;;;;6214210;23;20016;-88
2022/11/26 09:09:11;;;;;;;40.78;16.08;;;5.30;99.90;;;;;;6214181;23;20065;-85
2022/11/26 09:11:32;;;;;;;43.13;16.70;;;5.30;99.90;;;;;;6240526;23;20466;-86
2022/11/26 09:13:58;;;;;;;36.65;15.75;;;5.40;99.90;;;;;;6239182;23;20023;-86
2022/11/26 09:16:24;;;;;;;33.30;17.05;;;5.40;99.90;;;;;;6241528;23;20008;-86
2022/11/26 09:18:50;;;;;;;38.85;17.05;;;5.50;99.90;;;;;;6240409;23;20012;-85
2022/11/26 09:21:16;;;;;;;35.25;15.38;;;5.50;99.90;;;;;;6241955;23;20440;-87
2022/11/26 09:23:42;;;;;;;34.33;16.58;;;5.80;99.90;;;;;;6250527;23;20072;-90
2022/11/26 09:26:07;;;;;;;31.20;15.10;;;5.60;99.90;;;;;;6219081;23;20019;-88
2022/11/26 09:28:33;;;;;;;30.95;14.48;;;5.70;99.90;;;;;;6247218;23;20020;-92
2022/11/26 09:31:00;;;;;;;31.55;15.65;;;5.70;99.90;;;;;;6218557;23;20017;-92
2022/11/26 09:33:26;;;;;;;46.80;16.33;;;5.80;99.90;;;;;;6217347;23;20087;-91
2022/11/26 09:35:52;;;;;;;35.22;15.25;;;5.80;99.90;;;;;;6217050;23;20095;-91
2022/11/26 09:38:18;;;;;;;35.58;14.45;;;5.80;99.90;;;;;;6217236;23;20454;-91
2022/11/26 09:40:53;;;;;;;32.33;14.65;;;5.90;99.90;;;;;;6242375;23;20043;-86
2022/11/26 09:43:32;;;;;;;31.67;14.63;;;5.90;99.90;;;;;;6239792;23;20012;-87
2022/11/26 09:46:00;;;;;;;31.20;15.43;;;6.00;99.90;;;;;;6241639;23;20023;-86
2022/11/26 09:48:29;;;;;;;27.65;14.63;;;6.10;99.90;;;;;;6213897;23;20512;-85
2022/11/26 09:51:03;;;;;;;34.05;14.45;;;6.00;99.90;;;;;;6239938;23;20016;-86
2022/11/26 09:53:36;;;;;;;32.90;14.90;;;6.10;99.90;;;;;;6241101;23;20008;-88
2022/11/26 09:56:02;;;;;;;39.33;15.73;;;6.10;99.90;;;;;;6241184;23;20043;-90
2022/11/26 09:58:37;;;;;;;31.33;14.43;;;6.20;99.90;;;;;;6242157;23;20460;-91
2022/11/26 10:01:04;;;;;;;32.88;14.35;;;6.20;99.90;;;;;;6239335;23;20020;-89
2022/11/26 10:03:33;;;;;;;35.58;15.18;;;6.30;99.90;;;;;;6189452;23;20012;-89
2022/11/26 10:06:04;;;;;;;39.15;14.20;;;6.30;99.90;;;;;;6241874;23;20036;-88
2022/11/26 10:08:42;;;;;;;31.40;15.13;;;6.40;99.90;;;;;;6241496;23;20020;-88
2022/11/26 10:11:18;;;;;;;30.15;13.43;;;6.40;99.90;;;;;;6239505;23;20091;-88
2022/11/26 10:14:00;;;;;;;27.80;14.65;;;6.50;99.90;;;;;;6213494;23;20388;-88
2022/11/26 10:16:58;;;;;;;33.53;14.80;;;6.50;99.90;;;;;;6240662;23;20016;-89
2022/11/26 10:19:37;;;;;;;33.40;14.20;;;6.60;99.90;;;;;;6240000;23;20596;-89
2022/11/26 10:22:12;;;;;;;32.35;16.17;;;6.60;99.90;;;;;;6213588;23;20095;-89
2022/11/26 10:24:40;;;;;;;37.42;14.77;;;6.70;99.90;;;;;;6240692;23;20079;-88
2022/11/26 10:27:18;;;;;;;38.35;14.77;;;6.70;99.90;;;;;;6212765;23;20422;-87
2022/11/26 10:29:53;;;;;;;44.22;15.35;;;6.70;99.90;;;;;;6238570;23;20016;-88
2022/11/26 10:32:37;;;;;;;36.60;14.05;;;6.80;99.90;;;;;;6213214;23;20352;-88
2022/11/26 10:35:03;;;;;;;39.90;15.90;;;6.90;99.90;;;;;;6239313;23;20008;-88
2022/11/26 10:37:29;;;;;;;31.20;15.10;;;6.90;99.90;;;;;;6240219;23;20019;-86
2022/11/26 10:40:15;;;;;;;36.60;16.15;;;7.00;99.90;;;;;;6238319;23;20034;-87
2022/11/26 10:42:43;;;;;;;30.52;14.00;;;7.10;99.90;;;;;;6211894;23;20016;-88
2022/11/26 10:45:19;;;;;;;39.83;15.38;;;7.10;99.90;;;;;;6241409;23;20039;-89
2022/11/26 10:47:44;;;;;;;29.83;15.27;;;7.20;99.90;;;;;;6239975;23;20016;-87
2022/11/26 10:50:10;;;;;;;38.75;15.40;;;7.20;99.90;;;;;;6214034;23;20091;-90
2022/11/26 10:52:38;;;;;;;29.25;15.57;;;7.30;99.90;;;;;;6239879;23;20015;-87
2022/11/26 10:55:15;;;;;;;38.00;15.60;;;7.30;99.90;;;;;;6212868;23;20040;-85
2022/11/26 10:57:46;;;;;;;30.85;14.80;;;7.30;99.90;;;;;;6213338;23;20012;-86
2022/11/26 11:00:37;;;;;;;34.60;15.95;;;7.40;99.90;;;;;;6212660;23;20051;-85
2022/11/26 11:03:13;;;;;;;40.17;16.60;;;7.40;99.90;;;;;;6211659;23;20023;-86
2022/11/26 11:05:41;;;;;;;35.30;15.60;;;7.50;99.90;;;;;;6187992;23;20020;-83
2022/11/26 11:08:32;;;;;;;25.77;15.63;;;7.50;99.90;;;;;;6213602;23;20062;-85
2022/11/26 11:11:00;;;;;;;35.97;16.48;;;7.50;99.90;;;;;;6210991;23;20020;-85
2022/11/26 11:13:41;;;;;;;31.63;15.82;;;7.50;99.90;;;;;;6240502;23;20013;-85
2022/11/26 11:16:07;;;;;;;35.95;16.65;;;7.50;99.90;;;;;;6240403;23;20047;-85
2022/11/26 11:18:34;;;;;;;34.17;16.38;;;7.50;99.90;;;;;;6239627;23;20016;-85
2022/11/26 11:21:02;;;;;;;42.08;17.27;;;7.60;99.90;;;;;;6188388;23;20027;-84
2022/11/26 11:23:35;;;;;;;30.92;16.77;;;7.60;99.90;;;;;;6240081;23;20361;-85
2022/11/26 11:26:07;;;;;;;37.83;17.67;;;7.60;99.90;;;;;;6188765;23;20012;-85
2022/11/26 11:28:41;;;;;;;32.13;17.08;;;7.70;99.90;;;;;;6214303;23;20044;-85
2022/11/26 11:31:14;;;;;;;35.05;16.90;;;7.70;99.90;;;;;;6216127;23;20024;-84
2022/11/26 11:33:40;;;;;;;33.88;16.73;;;7.70;99.90;;;;;;6190110;23;20016;-85
2022/11/26 11:36:15;;;;;;;30.27;15.80;;;7.70;99.90;;;;;;6244296;23;20719;-83
2022/11/26 11:38:48;;;;;;;;;;;7.80;99.90;;;;;;6215043;23;20339;-85
2022/11/26 11:41:51;;;;;;;27.83;15.35;;;7.80;99.90;;;;;;6242899;23;19927;-84
2022/11/26 11:44:26;;;;;;;28.58;15.55;;;7.80;99.90;;;;;;6241824;23;20091;-84
2022/11/26 11:47:03;;;;;;;33.05;17.17;;;7.80;99.90;;;;;;6242146;23;20023;-84
2022/11/26 11:50:03;;;;;;;31.23;15.95;;;7.80;99.90;;;;;;6241131;23;20070;-85
2022/11/26 11:52:48;;;;;;;33.25;16.45;;;7.80;99.90;;;;;;6241259;23;20019;-84
2022/11/26 11:55:36;;;;;;;41.05;18.10;;;7.80;99.90;;;;;;6240822;23;20061;-85
2022/11/26 11:58:28;;;;;;;36.75;18.23;;;7.80;99.90;;;;;;6215502;23;20030;-81
2022/11/26 12:01:05;;;;;;;41.83;18.58;;;7.80;99.90;;;;;;6214281;23;20074;-82
2022/11/26 12:04:03;;;;;;;35.65;18.27;;;7.80;99.90;;;;;;6241447;23;20012;-86
2022/11/26 12:06:50;;;;;;;37.85;18.23;;;7.80;99.90;;;;;;6224769;23;20059;-89
2022/11/26 12:09:22;;;;;;;37.88;19.77;;;7.90;99.90;;;;;;6248917;23;20016;-89
2022/11/26 12:11:54;;;;;;;41.47;19.00;;;8.30;99.90;;;;;;6250265;23;20510;-90
2022/11/26 12:14:31;;;;;;;39.97;19.30;;;8.00;99.90;;;;;;6247435;23;20458;-86
2022/11/26 12:17:03;;;;;;;40.72;20.73;;;7.90;99.90;;;;;;6242855;23;20023;-86
2022/11/26 12:19:45;;;;;;;44.47;19.27;;;7.90;99.90;;;;;;6215770;23;20030;-86
2022/11/26 12:22:17;;;;;;;48.08;21.33;;;7.90;99.90;;;;;;6242517;23;20115;-87
2022/11/26 12:24:53;;;;;;;43.03;22.42;;;7.90;99.90;;;;;;6243447;23;20463;-86
2022/11/26 12:27:37;;;;;;;42.47;22.67;;;7.90;99.90;;;;;;6242995;23;20023;-86
2022/11/26 12:30:23;;;;;;;;;;;8.00;99.90;;;;;;6243398;23;20018;-86
2022/11/26 12:33:05;;;;;;;42.50;21.80;;;8.00;99.90;;;;;;6241445;23;19946;-87
2022/11/26 12:35:34;;;;;;;47.00;23.45;;;8.00;99.90;;;;;;6215521;23;20012;-86
2022/11/26 12:38:12;;;;;;;45.50;22.08;;;8.00;99.90;;;;;;6215887;23;20023;-85
2022/11/26 12:40:46;;;;;;;42.50;21.23;;;8.00;99.90;;;;;;6215206;23;20069;-85
2022/11/26 12:43:17;;;;;;;47.88;23.40;;;8.00;99.90;;;;;;6215269;23;20318;-85
2022/11/26 12:46:01;;;;;;;48.47;22.45;;;8.10;99.90;;;;;;6215899;23;20012;-85
2022/11/26 12:48:32;;;;;;;46.42;22.80;;;8.10;99.90;;;;;;6216041;23;20262;-85
2022/11/26 12:51:16;;;;;;;46.60;22.02;;;8.10;99.90;;;;;;6247003;23;20084;-87
2022/11/26 12:54:04;;;;;;;47.67;26.08;;;8.10;99.90;;;;;;6195469;23;20106;-87